sensor_id;sensor_type;location;lat;lon;timestamp;temperature;humidity
23073;DHT22;34865;51.046;3.732;2022-12-18T00:02:07;-1.30;99.90
23073;DHT22;34865;51.046;3.732;2022-12-18T00:04:33;-1.40;99.90
23073;DHT22;34865;51.046;3.732;2022-12-18T00:06:58;-1.40;99.90
23073;DHT22;34865;51.046;3.732;2022-12-18T00:09:24;-1.40;99.90
23073;DHT22;34865;51.046;3.732;2022-12-18T00:11:50;-1.50;99.90
23073;DHT22;34865;51.046;3.732;2022-12-18T00:14:16;-1.40;99.90
23073;DHT22;34865;51.046;3.732;2022-12-18T00:16:45;-1.40;99.90
23073;DHT22;34865;51.046;3.732;2022-12-18T00:19:12;-1.40;99.90
23073;DHT22;34865;51.046;3.732;2022-12-18T00:21:38;-1.40;99.90
23073;DHT22;34865;51.046;3.732;2022-12-18T00:24:06;-1.50;99.90
23073;DHT22;34865;51.046;3.732;2022-12-18T00:26:34;-1.70;99.90
23073;DHT22;34865;51.046;3.732;2022-12-18T00:29:06;-1.80;99.90
23073;DHT22;34865;51.046;3.732;2022-12-18T00:31:32;-2.00;99.90
23073;DHT22;34865;51.046;3.732;2022-12-18T00:33:59;-2.20;99.90
23073;DHT22;34865;51.046;3.732;2022-12-18T00:36:31;-2.20;99.90
23073;DHT22;34865;51.046;3.732;2022-12-18T00:38:58;-2.20;99.90
23073;DHT22;34865;51.046;3.732;2022-12-18T00:41:25;-2.20;99.90
23073;DHT22;34865;51.046;3.732;2022-12-18T00:44:12;-2.20;99.90
23073;DHT22;34865;51.046;3.732;2022-12-18T00:46:38;-2.10;99.90
23073;DHT22;34865;51.046;3.732;2022-12-18T00:49:04;-2.00;99.90
23073;DHT22;34865;51.046;3.732;2022-12-18T00:51:30;-2.00;99.90
23073;DHT22;34865;51.046;3.732;2022-12-18T00:53:55;-1.80;99.90
23073;DHT22;34865;51.046;3.732;2022-12-18T00:56:21;-2.00;99.90
23073;DHT22;34865;51.046;3.732;2022-12-18T00:58:47;-1.90;99.90
23073;DHT22;34865;51.046;3.732;2022-12-18T01:01:13;-1.90;99.90
23073;DHT22;34865;51.046;3.732;2022-12-18T01:03:39;-1.80;99.90
23073;DHT22;34865;51.046;3.732;2022-12-18T01:06:10;-1.90;99.90
23073;DHT22;34865;51.046;3.732;2022-12-18T01:08:37;-2.00;99.90
23073;DHT22;34865;51.046;3.732;2022-12-18T01:11:14;-1.90;99.90
23073;DHT22;34865;51.046;3.732;2022-12-18T01:13:41;-1.90;99.90
23073;DHT22;34865;51.046;3.732;2022-12-18T01:16:07;-1.90;99.90
23073;DHT22;34865;51.046;3.732;2022-12-18T01:18:34;-1.70;99.90
23073;DHT22;34865;51.046;3.732;2022-12-18T01:21:00;-1.90;99.90
23073;DHT22;34865;51.046;3.732;2022-12-18T01:23:25;-2.00;99.90
23073;DHT22;34865;51.046;3.732;2022-12-18T01:25:51;-2.10;99.90
23073;DHT22;34865;51.046;3.732;2022-12-18T01:28:16;-2.10;99.90
23073;DHT22;34865;51.046;3.732;2022-12-18T01:30:42;-2.20;99.90
23073;DHT22;34865;51.046;3.732;2022-12-18T01:33:07;-2.40;99.90
23073;DHT22;34865;51.046;3.732;2022-12-18T01:35:40;-2.30;99.90
23073;DHT22;34865;51.046;3.732;2022-12-18T01:38:05;-2.30;99.90
23073;DHT22;34865;51.046;3.732;2022-12-18T01:40:31;-2.50;99.90
23073;DHT22;34865;51.046;3.732;2022-12-18T01:42:57;-2.40;99.90
23073;DHT22;34865;51.046;3.732;2022-12-18T01:45:28;-2.30;99.90
23073;DHT22;34865;51.046;3.732;2022-12-18T01:48:03;-2.20;99.90
23073;DHT22;34865;51.046;3.732;2022-12-18T01:50:36;-2.50;99.90
23073;DHT22;34865;51.046;3.732;2022-12-18T01:53:07;-2.70;99.90
23073;DHT22;34865;51.046;3.732;2022-12-18T01:55:39;-2.60;99.90
23073;DHT22;34865;51.046;3.732;2022-12-18T01:58:06;-2.70;99.90
23073;DHT22;34865;51.046;3.732;2022-12-18T02:00:32;-2.80;99.90
23073;DHT22;34865;51.046;3.732;2022-12-18T02:02:57;-2.60;99.90
23073;DHT22;34865;51.046;3.732;2022-12-18T02:05:49;-2.60;99.90
23073;DHT22;34865;51.046;3.732;2022-12-18T02:16:24;-2.70;99.90
23073;DHT22;34865;51.046;3.732;2022-12-18T02:18:58;-2.80;99.90
23073;DHT22;34865;51.046;3.732;2022-12-18T02:21:49;-2.70;99.90
23073;DHT22;34865;51.046;3.732;2022-12-18T02:24:41;-2.70;99.90
23073;DHT22;34865;51.046;3.732;2022-12-18T02:27:09;-2.80;99.90
23073;DHT22;34865;51.046;3.732;2022-12-18T02:29:51;-2.90;99.90
23073;DHT22;34865;51.046;3.732;2022-12-18T02:32:22;-2.80;99.90
23073;DHT22;34865;51.046;3.732;2022-12-18T02:34:50;-2.60;99.90
23073;DHT22;34865;51.046;3.732;2022-12-18T02:37:18;-2.60;99.90
23073;DHT22;34865;51.046;3.732;2022-12-18T02:39:48;-2.80;99.90
23073;DHT22;34865;51.046;3.732;2022-12-18T02:42:15;-2.90;99.90
23073;DHT22;34865;51.046;3.732;2022-12-18T02:44:49;-3.00;99.90
23073;DHT22;34865;51.046;3.732;2022-12-18T02:47:17;-2.90;99.90
23073;DHT22;34865;51.046;3.732;2022-12-18T03:01:28;-2.90;99.90
23073;DHT22;34865;51.046;3.732;2022-12-18T03:04:04;-3.10;99.90
23073;DHT22;34865;51.046;3.732;2022-12-18T03:06:40;-3.10;99.90
23073;DHT22;34865;51.046;3.732;2022-12-18T03:09:10;-3.10;99.90
23073;DHT22;34865;51.046;3.732;2022-12-18T03:11:40;-3.00;99.90
23073;DHT22;34865;51.046;3.732;2022-12-18T03:14:27;-2.90;99.90
23073;DHT22;34865;51.046;3.732;2022-12-18T03:16:59;-2.90;99.90
23073;DHT22;34865;51.046;3.732;2022-12-18T03:19:28;-2.80;99.90
23073;DHT22;34865;51.046;3.732;2022-12-18T03:21:56;-2.70;99.90
23073;DHT22;34865;51.046;3.732;2022-12-18T03:24:23;-2.80;99.90
23073;DHT22;34865;51.046;3.732;2022-12-18T03:26:52;-2.90;99.90
23073;DHT22;34865;51.046;3.732;2022-12-18T03:29:28;-2.90;99.90
23073;DHT22;34865;51.046;3.732;2022-12-18T03:32:02;-3.00;99.90
23073;DHT22;34865;51.046;3.732;2022-12-18T03:34:35;-2.90;99.90
23073;DHT22;34865;51.046;3.732;2022-12-18T03:37:03;-3.00;99.90
23073;DHT22;34865;51.046;3.732;2022-12-18T03:39:29;-3.20;99.90
23073;DHT22;34865;51.046;3.732;2022-12-18T03:42:07;-3.30;99.90
23073;DHT22;34865;51.046;3.732;2022-12-18T03:52:50;-3.50;99.90
23073;DHT22;34865;51.046;3.732;2022-12-18T03:55:20;-3.30;99.90
23073;DHT22;34865;51.046;3.732;2022-12-18T03:57:48;-3.40;99.90
23073;DHT22;34865;51.046;3.732;2022-12-18T04:00:17;-3.30;99.90
23073;DHT22;34865;51.046;3.732;2022-12-18T04:02:48;-3.20;99.90
23073;DHT22;34865;51.046;3.732;2022-12-18T04:05:15;-3.20;99.90
23073;DHT22;34865;51.046;3.732;2022-12-18T04:07:42;-3.20;99.90
23073;DHT22;34865;51.046;3.732;2022-12-18T04:10:09;-3.20;99.90
23073;DHT22;34865;51.046;3.732;2022-12-18T04:12:37;-3.20;99.90
23073;DHT22;34865;51.046;3.732;2022-12-18T04:15:04;-3.20;99.90
23073;DHT22;34865;51.046;3.732;2022-12-18T04:17:29;-3.00;99.90
23073;DHT22;34865;51.046;3.732;2022-12-18T04:19:55;-2.90;99.90
23073;DHT22;34865;51.046;3.732;2022-12-18T04:22:21;-3.20;99.90
23073;DHT22;34865;51.046;3.732;2022-12-18T04:24:46;-3.50;99.90
23073;DHT22;34865;51.046;3.732;2022-12-18T04:27:12;-3.70;99.90
23073;DHT22;34865;51.046;3.732;2022-12-18T04:29:38;-3.70;99.90
23073;DHT22;34865;51.046;3.732;2022-12-18T04:32:03;-3.70;99.90
23073;DHT22;34865;51.046;3.732;2022-12-18T04:34:29;-3.60;99.90
23073;DHT22;34865;51.046;3.732;2022-12-18T04:36:54;-3.70;99.90
23073;DHT22;34865;51.046;3.732;2022-12-18T04:39:20;-3.70;99.90
23073;DHT22;34865;51.046;3.732;2022-12-18T04:41:46;-3.80;99.90
23073;DHT22;34865;51.046;3.732;2022-12-18T04:44:11;-3.80;99.90
23073;DHT22;34865;51.046;3.732;2022-12-18T04:46:37;-3.80;99.90
23073;DHT22;34865;51.046;3.732;2022-12-18T04:49:02;-3.90;99.90
23073;DHT22;34865;51.046;3.732;2022-12-18T04:51:28;-3.90;99.90
23073;DHT22;34865;51.046;3.732;2022-12-18T04:53:54;-3.80;99.90
23073;DHT22;34865;51.046;3.732;2022-12-18T04:56:20;-3.80;99.90
23073;DHT22;34865;51.046;3.732;2022-12-18T04:58:46;-3.90;99.90
23073;DHT22;34865;51.046;3.732;2022-12-18T05:01:12;-3.80;99.90
23073;DHT22;34865;51.046;3.732;2022-12-18T05:03:38;-3.80;99.90
23073;DHT22;34865;51.046;3.732;2022-12-18T05:06:05;-3.80;99.90
23073;DHT22;34865;51.046;3.732;2022-12-18T05:08:31;-3.70;99.90
23073;DHT22;34865;51.046;3.732;2022-12-18T05:11:05;-3.70;99.90
23073;DHT22;34865;51.046;3.732;2022-12-18T05:13:31;-3.80;99.90
23073;DHT22;34865;51.046;3.732;2022-12-18T05:15:57;-3.80;99.90
23073;DHT22;34865;51.046;3.732;2022-12-18T05:18:24;-3.80;99.90
23073;DHT22;34865;51.046;3.732;2022-12-18T05:20:51;-3.70;99.90
23073;DHT22;34865;51.046;3.732;2022-12-18T05:23:17;-3.70;99.90
23073;DHT22;34865;51.046;3.732;2022-12-18T05:25:46;-3.60;99.90
23073;DHT22;34865;51.046;3.732;2022-12-18T05:28:11;-3.70;99.90
23073;DHT22;34865;51.046;3.732;2022-12-18T05:30:37;-3.60;99.90
23073;DHT22;34865;51.046;3.732;2022-12-18T05:33:02;-3.60;99.90
23073;DHT22;34865;51.046;3.732;2022-12-18T05:35:28;-3.50;99.90
23073;DHT22;34865;51.046;3.732;2022-12-18T05:37:54;-3.50;99.90
23073;DHT22;34865;51.046;3.732;2022-12-18T05:40:19;-3.50;99.90
23073;DHT22;34865;51.046;3.732;2022-12-18T05:42:45;-3.40;99.90
23073;DHT22;34865;51.046;3.732;2022-12-18T05:45:10;-3.30;99.90
23073;DHT22;34865;51.046;3.732;2022-12-18T05:47:36;-3.30;99.90
23073;DHT22;34865;51.046;3.732;2022-12-18T05:50:02;-3.30;99.90
23073;DHT22;34865;51.046;3.732;2022-12-18T05:52:27;-3.30;99.90
23073;DHT22;34865;51.046;3.732;2022-12-18T05:54:53;-3.20;99.90
23073;DHT22;34865;51.046;3.732;2022-12-18T05:57:18;-3.20;99.90
23073;DHT22;34865;51.046;3.732;2022-12-18T05:59:44;-3.20;99.90
23073;DHT22;34865;51.046;3.732;2022-12-18T06:02:10;-3.30;99.90
23073;DHT22;34865;51.046;3.732;2022-12-18T06:04:35;-3.30;99.90
23073;DHT22;34865;51.046;3.732;2022-12-18T06:07:01;-3.50;99.90
23073;DHT22;34865;51.046;3.732;2022-12-18T06:09:27;-3.50;99.90
23073;DHT22;34865;51.046;3.732;2022-12-18T06:11:54;-3.40;99.90
23073;DHT22;34865;51.046;3.732;2022-12-18T06:14:19;-3.40;99.90
23073;DHT22;34865;51.046;3.732;2022-12-18T06:16:45;-3.40;99.90
23073;DHT22;34865;51.046;3.732;2022-12-18T06:19:14;-3.50;99.90
23073;DHT22;34865;51.046;3.732;2022-12-18T06:21:40;-3.50;99.90
23073;DHT22;34865;51.046;3.732;2022-12-18T06:24:06;-3.50;99.90
23073;DHT22;34865;51.046;3.732;2022-12-18T06:26:32;-3.50;99.90
23073;DHT22;34865;51.046;3.732;2022-12-18T06:28:58;-3.60;99.90
23073;DHT22;34865;51.046;3.732;2022-12-18T06:31:24;-3.70;99.90
23073;DHT22;34865;51.046;3.732;2022-12-18T06:33:49;-3.70;99.90
23073;DHT22;34865;51.046;3.732;2022-12-18T06:36:18;-3.70;99.90
23073;DHT22;34865;51.046;3.732;2022-12-18T06:38:45;-3.70;99.90
23073;DHT22;34865;51.046;3.732;2022-12-18T06:41:17;-3.60;99.90
23073;DHT22;34865;51.046;3.732;2022-12-18T06:43:43;-3.60;99.90
23073;DHT22;34865;51.046;3.732;2022-12-18T06:46:10;-3.70;99.90
23073;DHT22;34865;51.046;3.732;2022-12-18T06:48:35;-3.70;99.90
23073;DHT22;34865;51.046;3.732;2022-12-18T06:51:03;-3.70;99.90
23073;DHT22;34865;51.046;3.732;2022-12-18T06:53:29;-3.50;99.90
23073;DHT22;34865;51.046;3.732;2022-12-18T06:56:05;-3.40;99.90
23073;DHT22;34865;51.046;3.732;2022-12-18T06:58:31;-3.40;99.90
23073;DHT22;34865;51.046;3.732;2022-12-18T07:01:02;-3.50;99.90
23073;DHT22;34865;51.046;3.732;2022-12-18T07:03:27;-3.50;99.90
23073;DHT22;34865;51.046;3.732;2022-12-18T07:05:53;-3.40;99.90
23073;DHT22;34865;51.046;3.732;2022-12-18T07:08:19;-3.40;99.90
23073;DHT22;34865;51.046;3.732;2022-12-18T07:10:44;-3.30;99.90
23073;DHT22;34865;51.046;3.732;2022-12-18T07:13:10;-3.30;99.90
23073;DHT22;34865;51.046;3.732;2022-12-18T07:15:36;-3.40;99.90
23073;DHT22;34865;51.046;3.732;2022-12-18T07:18:02;-3.40;99.90
23073;DHT22;34865;51.046;3.732;2022-12-18T07:20:27;-3.40;99.90
23073;DHT22;34865;51.046;3.732;2022-12-18T07:22:53;-3.40;99.90
23073;DHT22;34865;51.046;3.732;2022-12-18T07:25:18;-3.60;99.90
23073;DHT22;34865;51.046;3.732;2022-12-18T07:27:44;-3.70;99.90
23073;DHT22;34865;51.046;3.732;2022-12-18T07:30:10;-3.70;99.90
23073;DHT22;34865;51.046;3.732;2022-12-18T07:32:36;-3.80;99.90
23073;DHT22;34865;51.046;3.732;2022-12-18T07:35:01;-3.80;99.90
23073;DHT22;34865;51.046;3.732;2022-12-18T07:37:27;-3.70;99.90
23073;DHT22;34865;51.046;3.732;2022-12-18T07:39:53;-3.80;99.90
23073;DHT22;34865;51.046;3.732;2022-12-18T07:42:19;-3.80;99.90
23073;DHT22;34865;51.046;3.732;2022-12-18T07:44:57;-3.80;99.90
23073;DHT22;34865;51.046;3.732;2022-12-18T07:47:22;-3.80;99.90
23073;DHT22;34865;51.046;3.732;2022-12-18T07:49:48;-3.80;99.90
23073;DHT22;34865;51.046;3.732;2022-12-18T07:52:14;-3.80;99.90
23073;DHT22;34865;51.046;3.732;2022-12-18T07:54:39;-3.80;99.90
23073;DHT22;34865;51.046;3.732;2022-12-18T07:57:06;-3.50;99.90
23073;DHT22;34865;51.046;3.732;2022-12-18T07:59:31;-3.50;99.90
23073;DHT22;34865;51.046;3.732;2022-12-18T08:01:57;-3.40;99.90
23073;DHT22;34865;51.046;3.732;2022-12-18T08:04:24;-3.40;99.90
23073;DHT22;34865;51.046;3.732;2022-12-18T08:06:50;-3.30;99.90
23073;DHT22;34865;51.046;3.732;2022-12-18T08:09:15;-3.00;99.90
23073;DHT22;34865;51.046;3.732;2022-12-18T08:11:41;-3.20;99.90
23073;DHT22;34865;51.046;3.732;2022-12-18T08:14:07;-3.10;99.90
23073;DHT22;34865;51.046;3.732;2022-12-18T08:16:32;-2.90;99.90
23073;DHT22;34865;51.046;3.732;2022-12-18T08:18:58;-2.70;99.90
23073;DHT22;34865;51.046;3.732;2022-12-18T08:21:26;-2.70;99.90
23073;DHT22;34865;51.046;3.732;2022-12-18T08:23:53;-2.50;99.90
23073;DHT22;34865;51.046;3.732;2022-12-18T08:26:19;-2.20;99.90
23073;DHT22;34865;51.046;3.732;2022-12-18T08:28:45;-2.30;99.90
23073;DHT22;34865;51.046;3.732;2022-12-18T08:31:11;-2.10;99.90
23073;DHT22;34865;51.046;3.732;2022-12-18T08:33:38;-2.20;99.90
23073;DHT22;34865;51.046;3.732;2022-12-18T08:36:08;-2.00;99.90
23073;DHT22;34865;51.046;3.732;2022-12-18T08:38:57;-2.10;99.90
23073;DHT22;34865;51.046;3.732;2022-12-18T08:41:23;-2.10;99.90
23073;DHT22;34865;51.046;3.732;2022-12-18T08:43:49;-2.00;99.90
23073;DHT22;34865;51.046;3.732;2022-12-18T08:46:39;-2.10;99.90
23073;DHT22;34865;51.046;3.732;2022-12-18T08:49:07;-2.00;99.90
23073;DHT22;34865;51.046;3.732;2022-12-18T08:51:35;-1.80;99.90
23073;DHT22;34865;51.046;3.732;2022-12-18T08:54:05;-1.90;99.90
23073;DHT22;34865;51.046;3.732;2022-12-18T08:56:32;-1.90;99.90
23073;DHT22;34865;51.046;3.732;2022-12-18T08:59:01;-2.00;99.90
23073;DHT22;34865;51.046;3.732;2022-12-18T09:01:28;-2.10;99.90
23073;DHT22;34865;51.046;3.732;2022-12-18T09:03:54;-1.90;99.90
23073;DHT22;34865;51.046;3.732;2022-12-18T09:06:23;-1.80;99.90
23073;DHT22;34865;51.046;3.732;2022-12-18T09:08:50;-1.80;99.90
23073;DHT22;34865;51.046;3.732;2022-12-18T09:11:25;-1.80;99.90
23073;DHT22;34865;51.046;3.732;2022-12-18T09:13:53;-1.80;99.90
23073;DHT22;34865;51.046;3.732;2022-12-18T09:16:19;-1.90;99.90
23073;DHT22;34865;51.046;3.732;2022-12-18T09:18:46;-1.80;99.90
23073;DHT22;34865;51.046;3.732;2022-12-18T09:21:14;-1.60;99.90
23073;DHT22;34865;51.046;3.732;2022-12-18T09:23:41;-1.60;99.90
23073;DHT22;34865;51.046;3.732;2022-12-18T09:26:07;-1.50;99.90
23073;DHT22;34865;51.046;3.732;2022-12-18T09:28:33;-1.30;99.90
23073;DHT22;34865;51.046;3.732;2022-12-18T09:30:58;-1.30;99.90
23073;DHT22;34865;51.046;3.732;2022-12-18T09:33:24;-1.30;99.90
23073;DHT22;34865;51.046;3.732;2022-12-18T09:35:50;-1.30;99.90
23073;DHT22;34865;51.046;3.732;2022-12-18T09:38:18;-1.00;99.90
23073;DHT22;34865;51.046;3.732;2022-12-18T09:40:53;-0.90;99.90
23073;DHT22;34865;51.046;3.732;2022-12-18T09:43:26;-1.00;99.90
23073;DHT22;34865;51.046;3.732;2022-12-18T09:46:02;-1.00;99.90
23073;DHT22;34865;51.046;3.732;2022-12-18T09:48:32;-1.20;99.90
23073;DHT22;34865;51.046;3.732;2022-12-18T09:51:03;-1.20;99.90
23073;DHT22;34865;51.046;3.732;2022-12-18T09:53:34;-1.20;99.90
23073;DHT22;34865;51.046;3.732;2022-12-18T09:56:01;-1.00;99.90
23073;DHT22;34865;51.046;3.732;2022-12-18T09:58:44;-0.60;99.90
23073;DHT22;34865;51.046;3.732;2022-12-18T10:01:19;-0.60;99.90
23073;DHT22;34865;51.046;3.732;2022-12-18T10:03:47;-0.50;99.90
23073;DHT22;34865;51.046;3.732;2022-12-18T10:09:41;-0.60;99.90
23073;DHT22;34865;51.046;3.732;2022-12-18T10:12:22;-0.50;99.90
23073;DHT22;34865;51.046;3.732;2022-12-18T10:15:08;-0.50;99.90
23073;DHT22;34865;51.046;3.732;2022-12-18T10:18:15;-0.40;99.90
23073;DHT22;34865;51.046;3.732;2022-12-18T10:20:52;-0.30;99.90
23073;DHT22;34865;51.046;3.732;2022-12-18T10:26:04;0.00;99.90
23073;DHT22;34865;51.046;3.732;2022-12-18T10:28:33;0.10;99.90
23073;DHT22;34865;51.046;3.732;2022-12-18T10:31:02;0.00;99.90
23073;DHT22;34865;51.046;3.732;2022-12-18T10:33:30;-0.20;99.90
23073;DHT22;34865;51.046;3.732;2022-12-18T10:35:57;-0.20;99.90
23073;DHT22;34865;51.046;3.732;2022-12-18T10:38:28;-0.40;99.90
23073;DHT22;34865;51.046;3.732;2022-12-18T10:40:58;-0.40;99.90
23073;DHT22;34865;51.046;3.732;2022-12-18T10:43:29;-0.30;99.90
23073;DHT22;34865;51.046;3.732;2022-12-18T10:46:04;-0.10;99.90
23073;DHT22;34865;51.046;3.732;2022-12-18T10:48:54;0.00;99.90
23073;DHT22;34865;51.046;3.732;2022-12-18T10:51:23;0.00;99.90
23073;DHT22;34865;51.046;3.732;2022-12-18T10:53:59;0.00;99.90
23073;DHT22;34865;51.046;3.732;2022-12-18T10:56:27;-0.10;99.90
23073;DHT22;34865;51.046;3.732;2022-12-18T10:58:58;-0.10;99.90
23073;DHT22;34865;51.046;3.732;2022-12-18T11:01:24;-0.10;99.90
23073;DHT22;34865;51.046;3.732;2022-12-18T11:06:18;0.10;99.90
23073;DHT22;34865;51.046;3.732;2022-12-18T11:09:59;0.10;99.90
23073;DHT22;34865;51.046;3.732;2022-12-18T11:11:59;0.10;99.90
23073;DHT22;34865;51.046;3.732;2022-12-18T11:16:52;0.30;99.90
23073;DHT22;34865;51.046;3.732;2022-12-18T11:19:36;0.30;99.90
23073;DHT22;34865;51.046;3.732;2022-12-18T11:22:26;0.40;99.90
23073;DHT22;34865;51.046;3.732;2022-12-18T11:25:01;0.60;99.90
23073;DHT22;34865;51.046;3.732;2022-12-18T11:27:29;0.60;99.90
23073;DHT22;34865;51.046;3.732;2022-12-18T11:32:40;0.80;99.90
23073;DHT22;34865;51.046;3.732;2022-12-18T11:35:58;0.70;99.90
23073;DHT22;34865;51.046;3.732;2022-12-18T11:46:25;1.10;99.90
23073;DHT22;34865;51.046;3.732;2022-12-18T11:49:03;1.30;99.90
23073;DHT22;34865;51.046;3.732;2022-12-18T11:51:41;1.40;99.90
23073;DHT22;34865;51.046;3.732;2022-12-18T11:54:15;1.40;99.90
23073;DHT22;34865;51.046;3.732;2022-12-18T11:56:55;1.50;99.90
23073;DHT22;34865;51.046;3.732;2022-12-18T12:07:38;1.40;99.90
23073;DHT22;34865;51.046;3.732;2022-12-18T12:21:40;1.80;99.90
23073;DHT22;34865;51.046;3.732;2022-12-18T12:24:31;2.10;99.90
23073;DHT22;34865;51.046;3.732;2022-12-18T12:36:24;1.60;99.90
23073;DHT22;34865;51.046;3.732;2022-12-18T12:38:57;1.70;99.90
23073;DHT22;34865;51.046;3.732;2022-12-18T12:41:43;1.50;99.90
23073;DHT22;34865;51.046;3.732;2022-12-18T12:44:51;1.70;99.90
23073;DHT22;34865;51.046;3.732;2022-12-18T12:47:36;1.90;99.90
23073;DHT22;34865;51.046;3.732;2022-12-18T12:50:05;2.10;99.90
23073;DHT22;34865;51.046;3.732;2022-12-18T12:52:40;2.10;99.90
23073;DHT22;34865;51.046;3.732;2022-12-18T12:55:14;2.00;99.90
23073;DHT22;34865;51.046;3.732;2022-12-18T12:57:45;2.00;99.90
23073;DHT22;34865;51.046;3.732;2022-12-18T13:00:13;2.10;99.90
23073;DHT22;34865;51.046;3.732;2022-12-18T13:02:50;1.90;99.90
23073;DHT22;34865;51.046;3.732;2022-12-18T13:05:46;1.90;99.90
23073;DHT22;34865;51.046;3.732;2022-12-18T13:08:28;1.90;99.90
23073;DHT22;34865;51.046;3.732;2022-12-18T13:10:56;2.10;99.90
23073;DHT22;34865;51.046;3.732;2022-12-18T13:13:53;2.20;99.90
23073;DHT22;34865;51.046;3.732;2022-12-18T13:16:22;2.10;99.90
23073;DHT22;34865;51.046;3.732;2022-12-18T13:18:56;2.00;99.90
23073;DHT22;34865;51.046;3.732;2022-12-18T13:21:29;2.00;99.90
23073;DHT22;34865;51.046;3.732;2022-12-18T13:23:56;2.20;99.90
23073;DHT22;34865;51.046;3.732;2022-12-18T13:28:53;2.30;99.90
23073;DHT22;34865;51.046;3.732;2022-12-18T13:34:23;2.00;99.90
23073;DHT22;34865;51.046;3.732;2022-12-18T13:36:52;2.00;99.90
23073;DHT22;34865;51.046;3.732;2022-12-18T13:41:48;2.10;99.90
23073;DHT22;34865;51.046;3.732;2022-12-18T13:46:45;2.30;99.90
23073;DHT22;34865;51.046;3.732;2022-12-18T13:51:43;1.90;99.90
23073;DHT22;34865;51.046;3.732;2022-12-18T13:56:52;1.60;99.90
23073;DHT22;34865;51.046;3.732;2022-12-18T13:59:24;1.60;99.90
23073;DHT22;34865;51.046;3.732;2022-12-18T14:01:59;1.80;99.90
23073;DHT22;34865;51.046;3.732;2022-12-18T14:04:31;2.00;99.90
23073;DHT22;34865;51.046;3.732;2022-12-18T14:07:03;1.90;99.90
23073;DHT22;34865;51.046;3.732;2022-12-18T14:09:33;1.80;99.90
23073;DHT22;34865;51.046;3.732;2022-12-18T14:12:00;1.50;99.90
23073;DHT22;34865;51.046;3.732;2022-12-18T14:14:47;1.80;99.90
23073;DHT22;34865;51.046;3.732;2022-12-18T14:17:14;1.70;99.90
23073;DHT22;34865;51.046;3.732;2022-12-18T14:19:45;1.90;99.90
23073;DHT22;34865;51.046;3.732;2022-12-18T14:22:20;2.00;99.90
23073;DHT22;34865;51.046;3.732;2022-12-18T14:24:46;2.10;99.90
23073;DHT22;34865;51.046;3.732;2022-12-18T14:27:24;2.20;99.90
23073;DHT22;34865;51.046;3.732;2022-12-18T14:29:50;2.10;99.90
23073;DHT22;34865;51.046;3.732;2022-12-18T14:32:18;2.00;99.90
23073;DHT22;34865;51.046;3.732;2022-12-18T14:34:49;1.70;99.90
23073;DHT22;34865;51.046;3.732;2022-12-18T14:37:17;1.60;99.90
23073;DHT22;34865;51.046;3.732;2022-12-18T14:39:59;1.60;99.90
23073;DHT22;34865;51.046;3.732;2022-12-18T14:42:26;1.70;99.90
23073;DHT22;34865;51.046;3.732;2022-12-18T14:47:57;2.00;99.90
23073;DHT22;34865;51.046;3.732;2022-12-18T14:50:23;2.10;99.90
23073;DHT22;34865;51.046;3.732;2022-12-18T14:52:49;2.20;99.90
23073;DHT22;34865;51.046;3.732;2022-12-18T14:55:16;2.10;99.90
23073;DHT22;34865;51.046;3.732;2022-12-18T14:57:42;1.90;99.90
23073;DHT22;34865;51.046;3.732;2022-12-18T15:00:18;1.80;99.90
23073;DHT22;34865;51.046;3.732;2022-12-18T15:02:50;1.70;99.90
23073;DHT22;34865;51.046;3.732;2022-12-18T15:05:18;1.80;99.90
23073;DHT22;34865;51.046;3.732;2022-12-18T15:08:00;1.90;99.90
23073;DHT22;34865;51.046;3.732;2022-12-18T15:10:30;1.80;99.90
23073;DHT22;34865;51.046;3.732;2022-12-18T15:23:20;2.10;99.90
23073;DHT22;34865;51.046;3.732;2022-12-18T15:25:55;2.10;99.90
23073;DHT22;34865;51.046;3.732;2022-12-18T15:33:40;1.80;99.90
23073;DHT22;34865;51.046;3.732;2022-12-18T15:36:16;1.70;99.90
23073;DHT22;34865;51.046;3.732;2022-12-18T15:38:47;2.00;99.90
23073;DHT22;34865;51.046;3.732;2022-12-18T15:41:14;1.90;99.90
23073;DHT22;34865;51.046;3.732;2022-12-18T15:43:40;2.00;99.90
23073;DHT22;34865;51.046;3.732;2022-12-18T15:46:14;2.00;99.90
23073;DHT22;34865;51.046;3.732;2022-12-18T15:48:58;2.10;99.90
23073;DHT22;34865;51.046;3.732;2022-12-18T15:51:37;2.20;99.90
23073;DHT22;34865;51.046;3.732;2022-12-18T15:54:05;2.20;99.90
23073;DHT22;34865;51.046;3.732;2022-12-18T15:56:34;2.30;99.90
23073;DHT22;34865;51.046;3.732;2022-12-18T15:59:20;2.20;99.90
23073;DHT22;34865;51.046;3.732;2022-12-18T16:01:49;2.10;99.90
23073;DHT22;34865;51.046;3.732;2022-12-18T16:04:17;2.00;99.90
23073;DHT22;34865;51.046;3.732;2022-12-18T16:06:52;2.10;99.90
23073;DHT22;34865;51.046;3.732;2022-12-18T16:09:18;2.10;99.90
23073;DHT22;34865;51.046;3.732;2022-12-18T16:11:44;2.30;99.90
23073;DHT22;34865;51.046;3.732;2022-12-18T16:14:24;2.30;99.90
23073;DHT22;34865;51.046;3.732;2022-12-18T16:17:00;2.20;99.90
23073;DHT22;34865;51.046;3.732;2022-12-18T16:19:27;2.30;99.90
23073;DHT22;34865;51.046;3.732;2022-12-18T16:21:54;2.40;99.90
23073;DHT22;34865;51.046;3.732;2022-12-18T16:24:27;2.30;99.90
23073;DHT22;34865;51.046;3.732;2022-12-18T16:26:53;2.40;99.90
23073;DHT22;34865;51.046;3.732;2022-12-18T16:29:20;2.30;99.90
23073;DHT22;34865;51.046;3.732;2022-12-18T16:31:50;2.10;99.90
23073;DHT22;34865;51.046;3.732;2022-12-18T16:34:21;2.20;99.90
23073;DHT22;34865;51.046;3.732;2022-12-18T16:36:50;2.50;99.90
23073;DHT22;34865;51.046;3.732;2022-12-18T16:39:17;2.60;99.90
23073;DHT22;34865;51.046;3.732;2022-12-18T16:41:43;2.50;99.90
23073;DHT22;34865;51.046;3.732;2022-12-18T16:44:08;2.70;99.90
23073;DHT22;34865;51.046;3.732;2022-12-18T16:46:35;2.50;99.90
23073;DHT22;34865;51.046;3.732;2022-12-18T16:49:01;2.40;99.90
23073;DHT22;34865;51.046;3.732;2022-12-18T16:51:27;2.40;99.90
23073;DHT22;34865;51.046;3.732;2022-12-18T16:53:54;2.30;99.90
23073;DHT22;34865;51.046;3.732;2022-12-18T16:56:20;2.10;99.90
23073;DHT22;34865;51.046;3.732;2022-12-18T16:58:53;2.00;99.90
23073;DHT22;34865;51.046;3.732;2022-12-18T17:01:20;2.20;99.90
23073;DHT22;34865;51.046;3.732;2022-12-18T17:03:56;2.30;99.90
23073;DHT22;34865;51.046;3.732;2022-12-18T17:06:22;2.40;99.90
23073;DHT22;34865;51.046;3.732;2022-12-18T17:09:01;2.50;99.90
23073;DHT22;34865;51.046;3.732;2022-12-18T17:11:29;2.40;99.90
23073;DHT22;34865;51.046;3.732;2022-12-18T17:13:56;2.50;99.90
23073;DHT22;34865;51.046;3.732;2022-12-18T17:16:22;2.30;99.90
23073;DHT22;34865;51.046;3.732;2022-12-18T17:18:48;2.20;99.90
23073;DHT22;34865;51.046;3.732;2022-12-18T17:21:14;2.10;99.90
23073;DHT22;34865;51.046;3.732;2022-12-18T17:23:41;2.00;99.90
23073;DHT22;34865;51.046;3.732;2022-12-18T17:26:13;2.00;99.90
23073;DHT22;34865;51.046;3.732;2022-12-18T17:28:40;2.20;99.90
23073;DHT22;34865;51.046;3.732;2022-12-18T17:31:17;2.40;99.90
23073;DHT22;34865;51.046;3.732;2022-12-18T17:33:43;2.50;99.90
23073;DHT22;34865;51.046;3.732;2022-12-18T17:36:09;2.40;99.90
23073;DHT22;34865;51.046;3.732;2022-12-18T17:38:35;2.30;99.90
23073;DHT22;34865;51.046;3.732;2022-12-18T17:41:06;2.30;99.90
23073;DHT22;34865;51.046;3.732;2022-12-18T17:43:32;2.30;99.90
23073;DHT22;34865;51.046;3.732;2022-12-18T17:46:04;2.20;99.90